Time;durP1;ratioP1;P1;durP2;ratioP2;P2;SDS_P1;SDS_P2;PMS_P1;PMS_P2;Temp;Humidity;BMP_temperature;BMP_pressure;BME280_temperature;BME280_humidity;BME280_pressure;Samples;Min_cycle;Max_cycle;Signal;HPM_P1;HPM_P2
2022/10/21 00:01:36;;;;;;;;;;;;;;;-142.75;100.00;76355.72;5053032;28;19925;-66
2022/10/21 00:04:02;;;;;;;;;;;;;;;-142.75;100.00;76351.81;5053867;28;19917;-66
2022/10/21 00:06:27;;;;;;;;;;;;;;;-142.75;100.00;76349.81;5050948;28;19925;-66
2022/10/21 00:08:52;;;;;;;;;;;;;;;-142.75;100.00;76341.97;5051161;28;19925;-65
2022/10/21 00:11:17;;;;;;;;;;;;;;;-142.75;100.00;76343.94;5051484;28;19917;-66
2022/10/21 00:13:43;;;;;;;;;;;;;;;-142.75;100.00;76349.81;5051326;28;20041;-66
2022/10/21 00:16:08;;;;;;;;;;;;;;;-142.75;100.00;76353.78;5050714;28;19917;-66
2022/10/21 00:18:34;;;;;;;;;;;;;;;-142.75;100.00;76359.66;5033000;28;19917;-66
2022/10/21 00:20:59;;;;;;;;;;;;;;;-142.75;100.00;76361.63;5051053;28;19917;-66
2022/10/21 00:23:25;;;;;;;;;;;;;;;-142.75;100.00;76345.91;5051075;28;19979;-65
2022/10/21 00:25:54;;;;;;;;;;;;;;;-142.75;100.00;76347.84;5050850;28;19928;-65
2022/10/21 00:28:20;;;;;;;;;;;;;;;-142.75;100.00;76349.81;5050642;28;20011;-66
2022/10/21 00:30:45;;;;;;;;;;;;;;;-142.75;100.00;76347.84;5050977;28;20008;-66
2022/10/21 00:33:11;;;;;;;;;;;;;;;-142.75;100.00;76340.00;5050814;28;20298;-65
2022/10/21 00:35:36;;;;;;;;;;;;;;;-142.75;100.00;76328.19;5053032;28;20382;-65
2022/10/21 00:38:01;;;;;;;;;;;;;;;-142.75;100.00;76322.28;5050360;28;19924;-65
2022/10/21 00:40:27;;;;;;;;;;;;;;;-142.75;100.00;76314.41;5032341;28;20268;-65
2022/10/21 00:42:52;;;;;;;;;;;;;;;-142.75;100.00;76306.53;5050725;28;19966;-65
2022/10/21 00:45:19;;;;;;;;;;;;;;;-142.75;100.00;76296.69;5050572;28;19924;-65
2022/10/21 00:47:48;;;;;;;;;;;;;;;-142.75;100.00;76304.56;5050066;28;19936;-65
2022/10/21 00:50:20;;;;;;;;;;;;;;;-142.75;100.00;76300.63;5062933;28;19917;-65
2022/10/21 00:52:45;;;;;;;;;;;;;;;-142.75;100.00;76294.72;5050299;28;19920;-65
2022/10/21 00:55:11;;;;;;;;;;;;;;;-142.75;100.00;76298.66;5050615;28;19917;-65
2022/10/21 00:57:37;;;;;;;;;;;;;;;-142.75;100.00;76296.69;5050169;28;20366;-65
2022/10/21 01:00:03;;;;;;;;;;;;;;;-142.75;100.00;76298.66;5050314;28;19920;-64
2022/10/21 01:02:29;;;;;;;;;;;;;;;-142.75;100.00;76288.81;5049953;28;19955;-66
2022/10/21 01:04:56;;;;;;;;;;;;;;;-142.75;100.00;76288.81;5051109;28;19952;-65
2022/10/21 01:07:21;;;;;;;;;;;;;;;-142.75;100.00;76290.78;5049886;28;19931;-65
2022/10/21 01:09:47;;;;;;;;;;;;;;;-142.75;100.00;76294.72;5050069;28;20015;-66
2022/10/21 01:12:32;;;;;;;;;;;;;;;-142.75;100.00;76290.78;5049957;28;19917;-65
2022/10/21 01:15:12;;;;;;;;;;;;;;;-142.75;100.00;76294.72;5067959;28;20305;-66
2022/10/21 01:17:59;;;;;;;;;;;;;;;-142.75;100.00;76288.81;5047567;28;20474;-65
2022/10/21 01:20:27;;;;;;;;;;;;;;;-142.75;100.00;76290.78;5069469;28;19943;-66
2022/10/21 01:23:05;;;;;;;;;;;;;;;-142.75;100.00;76294.72;5069702;28;19916;-65
2022/10/21 01:25:49;;;;;;;;;;;;;;;-142.75;100.00;76284.88;5069480;28;20014;-65
2022/10/21 01:28:20;;;;;;;;;;;;;;;-142.75;100.00;76275.03;5068837;28;19925;-65
2022/10/21 01:31:04;;;;;;;;;;;;;;;-142.75;100.00;76278.97;5069619;28;19917;-65
2022/10/21 01:33:32;;;;;;;;;;;;;;;-142.75;100.00;76292.75;5069695;28;19916;-66
2022/10/21 01:36:03;;;;;;;;;;;;;;;-142.75;100.00;76296.69;5070111;28;19917;-65
2022/10/21 01:38:34;;;;;;;;;;;;;;;-142.75;100.00;76286.84;5069192;28;19924;-66
2022/10/21 01:41:04;;;;;;;;;;;;;;;-142.75;100.00;76284.88;5069500;28;19916;-66
2022/10/21 01:43:47;;;;;;;;;;;;;;;-142.75;100.00;76282.91;5069428;28;19916;-66
2022/10/21 01:46:17;;;;;;;;;;;;;;;-142.75;100.00;76288.81;5068848;28;19916;-66
2022/10/21 01:48:46;;;;;;;;;;;;;;;-142.75;100.00;76286.84;5069071;28;19966;-66
2022/10/21 01:51:12;;;;;;;;;;;;;;;-142.75;100.00;76284.88;5069344;28;19916;-66
2022/10/21 01:53:42;;;;;;;;;;;;;;;-142.75;100.00;76282.91;5069240;28;20016;-65
2022/10/21 01:56:09;;;;;;;;;;;;;;;-142.75;100.00;76298.66;5069004;28;20014;-65
2022/10/21 01:58:36;;;;;;;;;;;;;;;-142.75;100.00;76292.75;5068914;28;20409;-66
2022/10/21 02:01:03;;;;;;;;;;;;;;;-142.75;100.00;76288.81;5069131;28;19920;-65
2022/10/21 02:03:31;;;;;;;;;;;;;;;-142.75;100.00;76284.88;5069071;28;19924;-66
2022/10/21 02:05:56;;;;;;;;;;;;;;;-142.75;100.00;76282.91;5069964;28;19916;-65
2022/10/21 02:08:22;;;;;;;;;;;;;;;-142.75;100.00;76275.03;5068840;28;19920;-66
2022/10/21 02:10:48;;;;;;;;;;;;;;;-142.75;100.00;76278.97;5051039;28;19939;-65
2022/10/21 02:13:19;;;;;;;;;;;;;;;-142.75;100.00;76277.00;5068672;28;20383;-65
2022/10/21 02:15:44;;;;;;;;;;;;;;;-142.75;100.00;76271.09;5068889;28;19924;-65
2022/10/21 02:18:18;;;;;;;;;;;;;;;-142.75;100.00;76282.91;5068707;28;19924;-65
2022/10/21 02:20:44;;;;;;;;;;;;;;;-142.75;100.00;76286.84;5068986;28;20024;-65
2022/10/21 02:23:11;;;;;;;;;;;;;;;-142.75;100.00;76288.81;5068643;28;20413;-65
2022/10/21 02:25:39;;;;;;;;;;;;;;;-142.75;100.00;76292.75;5068784;28;20339;-65
2022/10/21 02:28:04;;;;;;;;;;;;;;;-142.75;100.00;76294.72;5068562;28;19924;-65
2022/10/21 02:30:34;;;;;;;;;;;;;;;-142.75;100.00;76286.84;5068680;28;20290;-66
2022/10/21 02:33:02;;;;;;;;;;;;;;;-142.75;100.00;76294.72;5068833;28;19924;-66
2022/10/21 02:35:46;;;;;;;;;;;;;;;-142.75;100.00;76290.78;5069522;28;19917;-66
2022/10/21 02:38:11;;;;;;;;;;;;;;;-142.75;100.00;76304.56;5049161;28;19924;-66
2022/10/21 02:40:39;;;;;;;;;;;;;;;-142.75;100.00;76320.31;5052729;28;19916;-65
2022/10/21 02:43:07;;;;;;;;;;;;;;;-142.75;100.00;76328.19;5052982;28;19916;-65
2022/10/21 02:45:33;;;;;;;;;;;;;;;-142.75;100.00;76320.31;5052630;28;20012;-66
2022/10/21 02:47:58;;;;;;;;;;;;;;;-142.75;100.00;76345.91;5052676;28;20364;-65
2022/10/21 02:50:23;;;;;;;;;;;;;;;-142.75;100.00;76365.56;5052854;28;20313;-65
2022/10/21 02:52:49;;;;;;;;;;;;;;;-142.75;100.00;76371.47;5052842;28;19955;-66
2022/10/21 02:55:14;;;;;;;;;;;;;;;-142.75;100.00;76371.47;5052665;28;19921;-65
2022/10/21 02:57:39;;;;;;;;;;;;;;;-142.75;100.00;76381.31;5052402;28;19924;-66
2022/10/21 03:00:04;;;;;;;;;;;;;;;-142.75;100.00;76369.50;5052405;28;19985;-65
2022/10/21 03:02:30;;;;;;;;;;;;;;;-142.75;100.00;76361.63;5052668;28;20391;-65
2022/10/21 03:04:55;;;;;;;;;;;;;;;-142.75;100.00;76369.50;5053512;28;20008;-66
2022/10/21 03:07:20;;;;;;;;;;;;;;;-142.75;100.00;76373.44;5052167;28;20516;-66
2022/10/21 03:09:45;;;;;;;;;;;;;;;-142.75;100.00;76369.50;5052331;28;19969;-65
2022/10/21 03:12:10;;;;;;;;;;;;;;;-142.75;100.00;76373.44;5052442;28;19916;-65
2022/10/21 03:14:35;;;;;;;;;;;;;;;-142.75;100.00;76371.47;5072078;28;19917;-66
2022/10/21 03:17:01;;;;;;;;;;;;;;;-142.75;100.00;76373.44;5071847;28;19924;-65
2022/10/21 03:19:26;;;;;;;;;;;;;;;-142.75;100.00;76367.53;5072073;28;19951;-65
2022/10/21 03:21:51;;;;;;;;;;;;;;;-142.75;100.00;76365.56;5072077;28;19917;-65
2022/10/21 03:24:16;;;;;;;;;;;;;;;-142.75;100.00;76369.50;5071957;28;19997;-65
2022/10/21 03:26:41;;;;;;;;;;;;;;;-142.75;100.00;76371.47;5071512;28;20974;-65
2022/10/21 03:29:06;;;;;;;;;;;;;;;-142.75;100.00;76367.53;5071829;28;20007;-66
2022/10/21 03:31:32;;;;;;;;;;;;;;;-142.75;100.00;76371.47;5071889;28;19923;-66
2022/10/21 03:33:57;;;;;;;;;;;;;;;-142.75;100.00;76359.66;5072123;28;19924;-66
2022/10/21 03:36:22;;;;;;;;;;;;;;;-142.75;100.00;76357.69;5072402;28;19969;-65
2022/10/21 03:38:47;;;;;;;;;;;;;;;-142.75;100.00;76353.78;5071552;28;20384;-65
2022/10/21 03:41:12;;;;;;;;;;;;;;;-142.75;100.00;76349.81;5071491;28;20003;-66
2022/10/21 03:43:38;;;;;;;;;;;;;;;-142.75;100.00;76355.72;5070968;28;19924;-66
2022/10/21 03:46:03;;;;;;;;;;;;;;;-142.75;100.00;76353.78;5070615;28;20019;-65
2022/10/21 03:48:28;;;;;;;;;;;;;;;-142.75;100.00;76349.81;5070656;28;19927;-66
2022/10/21 03:50:55;;;;;;;;;;;;;;;-142.75;100.00;76338.03;5070372;28;19927;-65
2022/10/21 03:53:20;;;;;;;;;;;;;;;-142.75;100.00;76334.09;5070723;28;19917;-65
2022/10/21 03:55:45;;;;;;;;;;;;;;;-142.75;100.00;76334.09;5070658;28;19916;-66
2022/10/21 03:58:10;;;;;;;;;;;;;;;-142.75;100.00;76340.00;5070454;28;19969;-65
2022/10/21 04:00:36;;;;;;;;;;;;;;;-142.75;100.00;76359.66;5070673;28;19917;-66
2022/10/21 04:03:01;;;;;;;;;;;;;;;-142.75;100.00;76349.81;5070647;28;19924;-65
2022/10/21 04:05:26;;;;;;;;;;;;;;;-142.75;100.00;76347.84;5053726;28;19923;-66
2022/10/21 04:07:51;;;;;;;;;;;;;;;-142.75;100.00;76361.63;5070294;28;19928;-66
2022/10/21 04:10:16;;;;;;;;;;;;;;;-142.75;100.00;76373.44;5070416;28;19920;-66
2022/10/21 04:12:42;;;;;;;;;;;;;;;-142.75;100.00;76377.38;5070634;28;20007;-66
2022/10/21 04:15:07;;;;;;;;;;;;;;;-142.75;100.00;76381.31;5070182;28;19923;-65
2022/10/21 04:17:32;;;;;;;;;;;;;;;-142.75;100.00;76391.16;5070394;28;20352;-65
2022/10/21 04:19:57;;;;;;;;;;;;;;;-142.75;100.00;76385.25;5072085;28;19956;-66
2022/10/21 04:22:23;;;;;;;;;;;;;;;-142.75;100.00;76393.13;5072456;28;19995;-66
2022/10/21 04:24:48;;;;;;;;;;;;;;;-142.75;100.00;76393.13;5072810;28;19939;-65
2022/10/21 04:27:13;;;;;;;;;;;;;;;-142.75;100.00;76397.06;5072501;28;20800;-66
2022/10/21 04:29:38;;;;;;;;;;;;;;;-142.75;100.00;76399.03;5072812;28;19981;-65
2022/10/21 04:32:03;;;;;;;;;;;;;;;-142.75;100.00;76401.00;5072771;28;19920;-65
2022/10/21 04:34:29;;;;;;;;;;;;;;;-142.75;100.00;76416.75;5072895;28;19970;-66
2022/10/21 04:36:54;;;;;;;;;;;;;;;-142.75;100.00;76412.81;5072459;28;19963;-66
2022/10/21 04:39:19;;;;;;;;;;;;;;;-142.75;100.00;76424.63;5072565;28;20297;-65
2022/10/21 04:41:44;;;;;;;;;;;;;;;-142.75;100.00;76436.44;5072509;28;19924;-66
2022/10/21 04:44:10;;;;;;;;;;;;;;;-142.75;100.00;76436.44;5072587;28;19916;-66
2022/10/21 04:46:35;;;;;;;;;;;;;;;-142.75;100.00;76444.31;5071963;28;19948;-65
2022/10/21 04:49:00;;;;;;;;;;;;;;;-142.75;100.00;76432.50;5072248;28;20374;-66
2022/10/21 04:51:25;;;;;;;;;;;;;;;-142.75;100.00;76434.47;5072460;28;20362;-66
2022/10/21 04:53:51;;;;;;;;;;;;;;;-142.75;100.00;76432.50;5072236;28;20033;-66
2022/10/21 04:56:16;;;;;;;;;;;;;;;-142.75;100.00;76430.53;5072259;28;19916;-65
2022/10/21 04:58:41;;;;;;;;;;;;;;;-142.75;100.00;76426.59;5054026;28;19931;-65
2022/10/21 05:01:06;;;;;;;;;;;;;;;-142.75;100.00;76428.56;5072120;28;20370;-65
2022/10/21 05:03:31;;;;;;;;;;;;;;;-142.75;100.00;76438.41;5071356;28;19947;-66
2022/10/21 05:05:57;;;;;;;;;;;;;;;-142.75;100.00;76436.44;5071935;28;19916;-66
2022/10/21 05:08:22;;;;;;;;;;;;;;;-142.75;100.00;76436.44;5071774;28;19920;-66
2022/10/21 05:10:47;;;;;;;;;;;;;;;-142.75;100.00;76456.13;5071928;28;20011;-66
2022/10/21 05:13:13;;;;;;;;;;;;;;;-142.75;100.00;76456.13;5071934;28;20507;-65
2022/10/21 05:15:38;;;;;;;;;;;;;;;-142.75;100.00;76456.13;5071848;28;19920;-65
2022/10/21 05:18:03;;;;;;;;;;;;;;;-142.75;100.00;76462.03;5071506;28;19955;-65
2022/10/21 05:20:28;;;;;;;;;;;;;;;-142.75;100.00;76462.03;5071816;28;19917;-66
2022/10/21 05:22:54;;;;;;;;;;;;;;;-142.75;100.00;76452.19;5071775;28;19921;-65
2022/10/21 05:25:19;;;;;;;;;;;;;;;-142.75;100.00;76446.28;5071560;28;20416;-65
2022/10/21 05:27:45;;;;;;;;;;;;;;;-142.75;100.00;76450.22;5071347;28;19940;-66
2022/10/21 05:30:10;;;;;;;;;;;;;;;-142.75;100.00;76450.22;5051730;28;19924;-66
2022/10/21 05:32:36;;;;;;;;;;;;;;;-142.75;100.00;76452.19;5051766;28;19917;-66
2022/10/21 05:35:01;;;;;;;;;;;;;;;-142.75;100.00;76448.25;5051561;28;19916;-65
2022/10/21 05:37:26;;;;;;;;;;;;;;;-142.75;100.00;76444.31;5051226;28;19963;-66
2022/10/21 05:39:52;;;;;;;;;;;;;;;-142.75;100.00;76448.25;5033530;28;19916;-65
2022/10/21 05:42:17;;;;;;;;;;;;;;;-142.75;100.00;76440.38;5051483;28;20402;-65
2022/10/21 05:44:42;;;;;;;;;;;;;;;-142.75;100.00;76430.53;5051519;28;19929;-66
2022/10/21 05:47:07;;;;;;;;;;;;;;;-142.75;100.00;76432.50;5090198;23;19925;-66
2022/10/21 05:49:33;;;;;;;;;;;;;;;-142.75;100.00;76420.69;5071394;28;20402;-67
2022/10/21 05:51:58;;;;;;;;;;;;;;;-142.75;100.00;76414.78;5079311;28;19916;-67
2022/10/21 05:54:23;;;;;;;;;;;;;;;-142.75;100.00;76406.91;5055294;28;19916;-67
2022/10/21 05:56:48;;;;;;;;;;;;;;;-142.75;100.00;76410.84;5066408;28;20082;-68
2022/10/21 05:59:14;;;;;;;;;;;;;;;-142.75;100.00;76414.78;5036559;28;19923;-66
2022/10/21 06:01:39;;;;;;;;;;;;;;;-142.75;100.00;76408.88;5051063;28;19924;-67
2022/10/21 06:04:05;;;;;;;;;;;;;;;-142.75;100.00;76408.88;5051015;28;19920;-67
2022/10/21 06:06:30;;;;;;;;;;;;;;;-142.75;100.00;76410.84;5050548;28;19944;-66
2022/10/21 06:08:55;;;;;;;;;;;;;;;-142.75;100.00;76412.81;5033689;28;20298;-67
2022/10/21 06:11:20;;;;;;;;;;;;;;;-142.75;100.00;76406.91;5050982;28;20294;-67
2022/10/21 06:13:46;;;;;;;;;;;;;;;-142.75;100.00;76422.66;5050893;28;20393;-67
2022/10/21 06:16:11;;;;;;;;;;;;;;;-142.75;100.00;76426.59;5051162;28;19924;-66
2022/10/21 06:18:37;;;;;;;;;;;;;;;-142.75;100.00;76436.44;5050631;28;19923;-67
2022/10/21 06:21:03;;;;;;;;;;;;;;;-142.75;100.00;76428.56;5051739;28;19916;-66
2022/10/21 06:23:28;;;;;;;;;;;;;;;-142.75;100.00;76436.44;5051015;28;20337;-67
2022/10/21 06:25:57;;;;;;;;;;;;;;;-142.75;100.00;76432.50;5050818;28;19928;-67
2022/10/21 06:28:23;;;;;;;;;;;;;;;-142.75;100.00;76428.56;5050536;28;19924;-68
2022/10/21 06:30:48;;;;;;;;;;;;;;;-142.75;100.00;76416.75;5051025;28;19924;-67
2022/10/21 06:33:14;;;;;;;;;;;;;;;-142.75;100.00;76414.78;5051538;28;20436;-67
2022/10/21 06:35:39;;;;;;;;;;;;;;;-142.75;100.00;76412.81;5052749;28;19917;-66
2022/10/21 06:38:04;;;;;;;;;;;;;;;-142.75;100.00;76416.75;5053879;28;19943;-66
2022/10/21 06:40:29;;;;;;;;;;;;;;;-142.75;100.00;76416.75;5052189;28;20370;-68
2022/10/21 06:42:54;;;;;;;;;;;;;;;-142.75;100.00;76416.75;5061123;28;19924;-67
2022/10/21 06:45:20;;;;;;;;;;;;;;;-142.75;100.00;76408.88;5056430;28;19935;-67
2022/10/21 06:47:45;;;;;;;;;;;;;;;-142.75;100.00;76399.03;5054789;28;19960;-64
2022/10/21 06:50:12;;;;;;;;;;;;;;;-142.75;100.00;76397.06;5053413;28;19917;-67
2022/10/21 06:52:37;;;;;;;;;;;;;;;-142.75;100.00;76395.09;5055609;28;19917;-67
2022/10/21 06:55:02;;;;;;;;;;;;;;;-142.75;100.00;76402.97;5051028;28;19924;-66
2022/10/21 06:57:27;;;;;;;;;;;;;;;-142.75;100.00;76401.00;5052857;28;20382;-67
2022/10/21 06:59:53;;;;;;;;;;;;;;;-142.75;100.00;76395.09;5054791;28;19916;-67
2022/10/21 07:02:18;;;;;;;;;;;;;;;-142.75;100.00;76383.28;5047124;28;20043;-66
2022/10/21 07:04:44;;;;;;;;;;;;;;;-142.75;100.00;76381.31;5045715;28;19921;-67
2022/10/21 07:07:10;;;;;;;;;;;;;;;-142.75;100.00;76379.34;5051247;28;19921;-67
2022/10/21 07:09:36;;;;;;;;;;;;;;;-142.75;100.00;76381.31;5049191;28;19928;-67
2022/10/21 07:12:01;;;;;;;;;;;;;;;-142.75;100.00;76383.28;5050378;28;19917;-67
2022/10/21 07:14:26;;;;;;;;;;;;;;;-142.75;100.00;76393.13;5059340;28;19970;-63
2022/10/21 07:16:52;;;;;;;;;;;;;;;-142.75;100.00;76389.19;5065779;28;19951;-65
2022/10/21 07:19:18;;;;;;;;;;;;;;;-142.75;100.00;76397.06;5070475;28;20337;-65
2022/10/21 07:21:43;;;;;;;;;;;;;;;-142.75;100.00;76401.00;5060422;28;19917;-67
2022/10/21 07:24:08;;;;;;;;;;;;;;;-142.75;100.00;76412.81;5052885;28;19923;-64
2022/10/21 07:26:34;;;;;;;;;;;;;;;-142.75;100.00;76424.63;5044195;28;20440;-69
2022/10/21 07:28:59;;;;;;;;;;;;;;;-142.75;100.00;76434.47;5061468;28;20008;-66
2022/10/21 07:31:25;;;;;;;;;;;;;;;-142.75;100.00;76444.31;5064191;28;19920;-66
2022/10/21 07:33:51;;;;;;;;;;;;;;;-142.75;100.00;76438.41;5063557;28;20342;-64
2022/10/21 07:36:18;;;;;;;;;;;;;;;-142.75;100.00;76452.19;5062086;28;19916;-65
2022/10/21 07:38:45;;;;;;;;;;;;;;;-142.75;100.00;76446.28;5064314;28;19955;-66
2022/10/21 07:41:17;;;;;;;;;;;;;;;-142.75;100.00;76446.28;5059182;28;19917;-66
2022/10/21 07:43:43;;;;;;;;;;;;;;;-142.75;100.00;76438.41;5059786;28;19917;-67
2022/10/21 07:46:08;;;;;;;;;;;;;;;-142.75;100.00;76434.47;5037268;28;19928;-66
2022/10/21 07:48:33;;;;;;;;;;;;;;;-142.75;100.00;76438.41;5053290;28;19955;-66
2022/10/21 07:51:03;;;;;;;;;;;;;;;-142.75;100.00;76438.41;5060827;28;19963;-66
2022/10/21 07:53:28;;;;;;;;;;;;;;;-142.75;100.00;76434.47;5062931;28;19924;-65
2022/10/21 07:56:20;;;;;;;;;;;;;;;-142.75;100.00;76420.69;5065467;28;20286;-67
2022/10/21 07:58:45;;;;;;;;;;;;;;;-142.75;100.00;76416.75;5057495;28;19982;-67
2022/10/21 08:01:11;;;;;;;;;;;;;;;-142.75;100.00;76428.56;5072495;28;19916;-67
2022/10/21 08:03:37;;;;;;;;;;;;;;;-142.75;100.00;76416.75;5073325;28;20312;-67
2022/10/21 08:06:02;;;;;;;;;;;;;;;-142.75;100.00;76401.00;5054459;28;20286;-67
2022/10/21 08:08:28;;;;;;;;;;;;;;;-142.75;100.00;76399.03;5052929;28;20398;-69
2022/10/21 08:10:53;;;;;;;;;;;;;;;-142.75;100.00;76397.06;5053316;28;19931;-67
2022/10/21 08:13:19;;;;;;;;;;;;;;;-142.75;100.00;76385.25;5056012;28;19931;-67
2022/10/21 08:15:45;;;;;;;;;;;;;;;-142.75;100.00;76377.38;5061614;28;19923;-67
2022/10/21 08:18:11;;;;;;;;;;;;;;;-142.75;100.00;76375.41;5060763;28;19917;-68
2022/10/21 08:20:40;;;;;;;;;;;;;;;-142.75;100.00;76371.47;5061130;28;20420;-67
2022/10/21 08:23:05;;;;;;;;;;;;;;;-142.75;100.00;76363.59;5056382;28;19931;-67
2022/10/21 08:25:30;;;;;;;;;;;;;;;-142.75;100.00;76365.56;5052732;28;20011;-67
2022/10/21 08:27:56;;;;;;;;;;;;;;;-142.75;100.00;76361.63;5053560;28;19924;-67
2022/10/21 08:30:21;;;;;;;;;;;;;;;-142.75;100.00;76365.56;5052722;28;19916;-67
2022/10/21 08:32:46;;;;;;;;;;;;;;;-142.75;100.00;76377.38;5063309;28;20412;-66
2022/10/21 08:35:11;;;;;;;;;;;;;;;-142.75;100.00;76367.53;5060089;28;19952;-68
2022/10/21 08:37:36;;;;;;;;;;;;;;;-142.75;100.00;76361.63;5053894;28;20287;-67
2022/10/21 08:40:02;;;;;;;;;;;;;;;-142.75;100.00;76347.84;5061749;28;20310;-67
2022/10/21 08:42:27;;;;;;;;;;;;;;;-142.75;100.00;76341.97;5063437;28;19955;-67
2022/10/21 08:44:52;;;;;;;;;;;;;;;-142.75;100.00;76326.22;5062047;28;20343;-67
2022/10/21 08:47:17;;;;;;;;;;;;;;;-142.75;100.00;76314.41;5060134;28;19928;-66
2022/10/21 08:49:48;;;;;;;;;;;;;;;-142.75;100.00;76310.47;5062910;28;20352;-66
2022/10/21 08:52:17;;;;;;;;;;;;;;;-142.75;100.00;76292.75;5057878;28;19917;-66
2022/10/21 08:54:42;;;;;;;;;;;;;;;-142.75;100.00;76288.81;5060281;28;19916;-66
2022/10/21 08:57:09;;;;;;;;;;;;;;;-142.75;100.00;76286.84;5062491;28;19917;-65
2022/10/21 08:59:34;;;;;;;;;;;;;;;-142.75;100.00;76286.84;5043087;28;19916;-65
2022/10/21 09:02:13;;;;;;;;;;;;;;;-142.75;100.00;76284.88;5069382;28;20385;-66
2022/10/21 09:04:42;;;;;;;;;;;;;;;-142.75;100.00;76286.84;5072160;28;20393;-66
2022/10/21 09:07:21;;;;;;;;;;;;;;;-142.75;100.00;76284.88;5053789;28;19966;-66
2022/10/21 09:09:52;;;;;;;;;;;;;;;-142.75;100.00;76288.81;5067227;28;19924;-64
2022/10/21 09:12:29;;;;;;;;;;;;;;;-142.75;100.00;76286.84;5062703;28;19935;-65
2022/10/21 09:15:13;;;;;;;;;;;;;;;-142.75;100.00;76286.84;5057339;28;19917;-66
2022/10/21 09:17:57;;;;;;;;;;;;;;;-142.75;100.00;76284.88;5070921;28;19940;-66
2022/10/21 09:20:34;;;;;;;;;;;;;;;-142.75;100.00;76271.09;5071876;28;19916;-66
2022/10/21 09:23:18;;;;;;;;;;;;;;;-142.75;100.00;76273.06;5071720;28;19917;-66
2022/10/21 09:25:58;;;;;;;;;;;;;;;-142.75;100.00;76267.16;5053692;28;20378;-67
2022/10/21 09:28:24;;;;;;;;;;;;;;;-142.75;100.00;76271.09;5054426;28;20008;-66
2022/10/21 09:30:50;;;;;;;;;;;;;;;-142.75;100.00;76255.34;5051784;28;19948;-66
2022/10/21 09:33:20;;;;;;;;;;;;;;;-142.75;100.00;76239.59;5051695;28;20291;-66
2022/10/21 09:35:47;;;;;;;;;;;;;;;-142.75;100.00;76239.59;5051988;28;20379;-66
2022/10/21 09:38:27;;;;;;;;;;;;;;;-142.75;100.00;76221.88;5051206;28;19940;-66
2022/10/21 09:41:02;;;;;;;;;;;;;;;-142.75;100.00;76223.84;5071374;28;20044;-66
2022/10/21 09:43:29;;;;;;;;;;;;;;;-142.75;100.00;76219.91;5071427;28;19917;-66
2022/10/21 09:45:56;;;;;;;;;;;;;;;-142.75;100.00;76202.19;5071285;28;20297;-66
2022/10/21 09:48:31;;;;;;;;;;;;;;;-142.75;100.00;76198.28;5052625;28;20344;-66
2022/10/21 09:51:03;;;;;;;;;;;;;;;-142.75;100.00;76186.47;5071339;28;19917;-66
2022/10/21 09:53:41;;;;;;;;;;;;;;;-142.75;100.00;76178.59;5071274;28;19939;-66
2022/10/21 09:56:12;;;;;;;;;;;;;;;-142.75;100.00;76168.75;5071216;28;20016;-64
2022/10/21 09:58:37;;;;;;;;;;;;;;;-142.75;100.00;76166.78;5070980;28;20011;-66
2022/10/21 10:01:03;;;;;;;;;;;;;;;-142.75;100.00;76153.00;5071253;28;20583;-66
2022/10/21 10:03:33;;;;;;;;;;;;;;;-142.75;100.00;76141.19;5071272;28;19970;-66
2022/10/21 10:05:59;;;;;;;;;;;;;;;-142.75;100.00;76123.47;5053142;28;20024;-66
2022/10/21 10:08:27;;;;;;;;;;;;;;;-142.75;100.00;76121.50;5070767;28;19916;-66
2022/10/21 10:11:01;;;;;;;;;;;;;;;-142.75;100.00;76103.78;5071051;28;19916;-66
2022/10/21 10:13:28;;;;;;;;;;;;;;;-142.75;100.00;76090.00;5053087;28;19960;-66
2022/10/21 10:15:53;;;;;;;;;;;;;;;-142.75;100.00;76072.31;5053230;28;19948;-66
2022/10/21 10:18:22;;;;;;;;;;;;;;;-142.75;100.00;76064.44;5070822;28;20297;-67
2022/10/21 10:21:13;;;;;;;;;;;;;;;-142.75;100.00;76042.78;5071069;28;20007;-67
2022/10/21 10:23:43;;;;;;;;;;;;;;;-142.75;100.00;76017.19;5067001;28;20013;-67
2022/10/21 10:26:09;;;;;;;;;;;;;;;-142.75;100.00;75967.97;5070847;28;19920;-67
2022/10/21 10:28:34;;;;;;;;;;;;;;;-142.75;100.00;75883.34;5070637;28;19942;-66
2022/10/21 10:31:00;;;;;;;;;;;;;;;-142.75;100.00;75844.00;5071040;28;20011;-67
2022/10/21 10:33:30;;;;;;;;;;;;;;;-142.75;100.00;75798.72;5070892;28;19928;-67
2022/10/21 10:35:57;;;;;;;;;;;;;;;-142.75;100.00;75751.50;5070800;28;20015;-67
2022/10/21 10:38:34;;;;;;;;;;;;;;;-142.75;100.00;75704.25;5070522;28;19920;-65
2022/10/21 10:41:05;;;;;;;;;;;;;;;-142.75;100.00;75645.22;5051023;28;20414;-67
2022/10/21 10:43:32;;;;;;;;;;;;;;;-142.75;100.00;75576.34;5050807;28;19955;-65
2022/10/21 10:45:59;;;;;;;;;;;;;;;-142.75;100.00;75521.22;5050765;28;19966;-66
2022/10/21 10:48:44;;;;;;;;;;;;;;;-142.75;100.00;75507.47;5050167;28;19917;-67
2022/10/21 10:51:26;;;;;;;;;;;;;;;-142.75;100.00;75414.97;5069268;28;20003;-67
2022/10/21 10:54:10;;;;;;;;;;;;;;;-142.75;100.00;75328.38;5070771;28;19923;-67
2022/10/21 10:56:41;;;;;;;;;;;;;;;-142.75;100.00;75298.84;5070272;28;19928;-67
2022/10/21 10:59:21;;;;;;;;;;;;;;;-142.75;100.00;75271.31;5070654;28;20437;-68
2022/10/21 11:02:01;;;;;;;;;;;;;;;-142.75;100.00;75226.06;5055458;28;19971;-67
2022/10/21 11:04:26;;;;;;;;;;;;;;;-142.75;100.00;75228.00;5056521;28;19917;-68
2022/10/21 11:06:55;;;;;;;;;;;;;;;-142.75;100.00;75338.22;5073983;28;19990;-67
2022/10/21 11:09:22;;;;;;;;;;;;;;;-142.75;100.00;75367.72;5056357;28;19931;-67
2022/10/21 11:11:50;;;;;;;;;;;;;;;-142.75;100.00;75357.91;5074330;28;19959;-66
2022/10/21 11:14:16;;;;;;;;;;;;;;;-142.75;100.00;75377.56;5074198;28;19916;-67
2022/10/21 11:16:49;;;;;;;;;;;;;;;-142.75;100.00;75430.72;5073906;28;20447;-67
2022/10/21 11:19:39;;;;;;;;;;;;;;;-142.75;100.00;75460.22;5074257;28;19916;-67
2022/10/21 11:22:08;;;;;;;;;;;;;;;-142.75;100.00;75475.97;5074330;28;19931;-66
2022/10/21 11:24:44;;;;;;;;;;;;;;;-142.75;100.00;75450.38;5047406;28;20321;-65
2022/10/21 11:27:09;;;;;;;;;;;;;;;-142.75;100.00;75371.66;5063782;28;19920;-65
2022/10/21 11:29:37;;;;;;;;;;;;;;;-142.75;100.00;75342.16;5062491;28;19920;-67
2022/10/21 11:32:08;;;;;;;;;;;;;;;-142.75;100.00;75352.00;5068082;28;20382;-67
2022/10/21 11:34:49;;;;;;;;;;;;;;;-142.75;100.00;75306.72;5062400;28;19921;-66
2022/10/21 11:37:20;;;;;;;;;;;;;;;-142.75;100.00;75338.22;5065415;28;19916;-67
2022/10/21 11:39:53;;;;;;;;;;;;;;;-142.75;100.00;75247.69;5073774;28;20382;-68
2022/10/21 11:42:18;;;;;;;;;;;;;;;-142.75;100.00;75224.09;5073747;28;19916;-67
2022/10/21 11:44:56;;;;;;;;;;;;;;;-142.75;100.00;75271.31;5073703;28;19961;-67
2022/10/21 11:47:44;;;;;;;;;;;;;;;-142.75;100.00;75283.13;5094089;23;19932;-67
2022/10/21 11:50:22;;;;;;;;;;;;;;;-142.75;100.00;75239.81;5072264;28;19920;-65
2022/10/21 11:52:58;;;;;;;;;;;;;;;-142.75;100.00;75153.25;5074587;28;19916;-65
2022/10/21 11:55:42;;;;;;;;;;;;;;;-142.75;100.00;75090.28;5093822;28;19990;-64
2022/10/21 11:58:19;;;;;;;;;;;;;;;-142.75;100.00;75109.94;5075220;28;20373;-65
2022/10/21 12:00:52;;;;;;;;;;;;;;;-142.75;100.00;75113.88;5093126;28;19960;-64
2022/10/21 12:03:35;;;;;;;;;;;;;;;-142.75;100.00;75098.16;5073235;28;20386;-64
2022/10/21 12:06:02;;;;;;;;;;;;;;;-142.75;100.00;75123.72;5076813;28;20271;-64
2022/10/21 12:08:32;;;;;;;;;;;;;;;-142.75;100.00;75167.00;5080308;28;20313;-64
2022/10/21 12:11:02;;;;;;;;;;;;;;;-142.75;100.00;75135.53;5080843;28;19924;-64
2022/10/21 12:13:46;;;;;;;;;;;;;;;-142.75;100.00;75204.41;5080508;28;19917;-64
2022/10/21 12:16:13;;;;;;;;;;;;;;;-142.75;100.00;75271.31;5076753;28;19917;-64
2022/10/21 12:19:00;;;;;;;;;;;;;;;-142.75;100.00;75318.53;5088871;28;19920;-64
2022/10/21 12:21:27;;;;;;;;;;;;;;;-142.75;100.00;75350.03;5093143;28;19999;-64
2022/10/21 12:24:16;;;;;;;;;;;;;;;-142.75;100.00;75377.56;5093192;28;19951;-64